createdAt,value
2022-11-07T00:00:55.824Z,56.60
2022-11-07T00:05:57.701Z,47.60
2022-11-07T00:11:03.673Z,44.50
2022-11-07T00:16:08.547Z,51.50
2022-11-07T00:21:10.903Z,47.20
2022-11-07T00:26:14.836Z,51.80
2022-11-07T00:31:18.347Z,53.30
2022-11-07T00:36:23.296Z,57.10
2022-11-07T00:41:25.582Z,47.30
2022-11-07T00:46:27.385Z,51.00
2022-11-07T00:51:29.465Z,52.70
2022-11-07T00:56:31.274Z,53.60
2022-11-07T01:01:33.849Z,48.90
2022-11-07T01:06:38.993Z,52.50
2022-11-07T01:11:42.281Z,58.80
2022-11-07T01:16:44.564Z,56.30
2022-11-07T01:21:46.647Z,57.30
2022-11-07T01:26:48.950Z,48.80
2022-11-07T01:31:51.016Z,45.70
2022-11-07T01:37:02.209Z,45.30
2022-11-07T01:42:04.615Z,43.20
2022-11-07T01:47:07.627Z,46.10
2022-11-07T01:52:23.308Z,46.10
2022-11-07T01:57:40.461Z,45.00
2022-11-07T02:02:44.340Z,44.60
2022-11-07T02:07:47.153Z,42.60
2022-11-07T02:12:49.336Z,48.50
2022-11-07T02:17:51.225Z,43.10
2022-11-07T02:23:44.408Z,48.40
2022-11-07T02:28:48.547Z,41.80
2022-11-07T02:33:50.733Z,42.30
2022-11-07T02:38:58.891Z,39.30
2022-11-07T02:44:05.752Z,46.40
2022-11-07T02:49:07.631Z,46.50
2022-11-07T02:54:09.490Z,45.50
2022-11-07T02:59:11.315Z,44.50
2022-11-07T03:04:13.246Z,53.00
2022-11-07T03:09:15.153Z,54.40
2022-11-07T03:14:17.204Z,52.40
2022-11-07T03:19:18.978Z,54.20
2022-11-07T03:24:21.170Z,52.70
2022-11-07T03:29:23.044Z,53.00
2022-11-07T03:34:24.918Z,53.60
2022-11-07T03:39:26.687Z,54.00
2022-11-07T03:44:28.574Z,54.40
2022-11-07T03:49:30.324Z,57.60
2022-11-07T03:54:32.080Z,61.50
2022-11-07T03:59:33.904Z,54.10
2022-11-07T04:04:35.781Z,62.10
2022-11-07T04:09:37.515Z,58.00
2022-11-07T04:14:58.273Z,65.70
2022-11-07T04:20:00.154Z,55.70
2022-11-07T04:25:02.026Z,59.20
2022-11-07T04:30:19.309Z,62.30
2022-11-07T04:35:24.303Z,73.60
2022-11-07T04:40:27.124Z,202.70
2022-11-07T04:45:28.990Z,84.00
2022-11-07T04:50:31.277Z,122.90
2022-11-07T04:55:33.106Z,79.80
2022-11-07T05:00:34.852Z,65.70
2022-11-07T05:05:36.811Z,65.40
2022-11-07T05:10:38.887Z,65.50
2022-11-07T05:15:41.277Z,78.50
2022-11-07T05:20:43.028Z,63.00
2022-11-07T05:25:50.358Z,72.00
2022-11-07T05:30:52.231Z,60.20
2022-11-07T05:35:54.362Z,54.70
2022-11-07T05:40:56.194Z,57.60
2022-11-07T05:46:01.757Z,54.30
2022-11-07T05:51:05.695Z,62.30
2022-11-07T05:56:07.557Z,46.60
2022-11-07T06:01:09.333Z,46.60
2022-11-07T06:06:11.133Z,43.70
2022-11-07T06:11:12.988Z,40.50
2022-11-07T06:16:14.967Z,43.00
2022-11-07T06:21:17.254Z,37.70
2022-11-07T06:26:19.129Z,37.30
2022-11-07T06:31:22.189Z,28.00
2022-11-07T06:36:24.007Z,31.20
2022-11-07T06:41:25.856Z,39.40
2022-11-07T06:46:27.763Z,37.20
2022-11-07T06:51:29.645Z,38.90
2022-11-07T06:56:31.446Z,32.80
2022-11-07T07:01:33.413Z,25.40
2022-11-07T07:06:35.375Z,40.00
2022-11-07T07:11:38.002Z,27.50
2022-11-07T07:16:39.956Z,28.00
2022-11-07T07:21:41.701Z,27.60
2022-11-07T07:26:43.504Z,27.20
2022-11-07T07:31:46.609Z,30.30
2022-11-07T07:36:48.794Z,41.20
2022-11-07T07:41:50.979Z,34.80
2022-11-07T07:46:54.906Z,37.50
2022-11-07T07:51:56.787Z,36.30
2022-11-07T07:56:58.660Z,29.00
2022-11-07T08:02:00.680Z,27.90
2022-11-07T08:07:03.127Z,32.60
2022-11-07T08:12:06.544Z,32.20
2022-11-07T08:17:08.433Z,27.80
2022-11-07T08:22:11.560Z,27.50
2022-11-07T08:27:13.509Z,23.00
2022-11-07T08:32:15.620Z,28.90
2022-11-07T08:37:17.467Z,24.50
2022-11-07T08:42:19.272Z,24.40
2022-11-07T08:47:21.318Z,21.50
2022-11-07T08:52:23.198Z,24.00
2022-11-07T08:57:24.948Z,25.00
2022-11-07T09:03:08.518Z,21.40
2022-11-07T09:07:49.260Z,19.30
2022-11-07T09:12:52.415Z,22.30
2022-11-07T09:17:54.296Z,29.70
2022-11-07T09:22:57.674Z,24.10
2022-11-07T09:28:03.236Z,21.30
2022-11-07T09:33:05.151Z,22.20
2022-11-07T09:38:06.928Z,21.30
2022-11-07T09:43:18.196Z,25.30
2022-11-07T09:48:24.405Z,21.20
2022-11-07T09:53:33.366Z,23.80
2022-11-07T09:58:41.060Z,21.30
2022-11-07T10:04:10.173Z,23.10
2022-11-07T10:09:22.479Z,17.60
2022-11-07T10:15:01.646Z,24.00
2022-11-07T10:20:24.917Z,20.30
2022-11-07T10:25:37.768Z,23.90
2022-11-07T10:30:40.980Z,17.90
2022-11-07T10:35:48.064Z,27.30
2022-11-07T10:40:51.687Z,19.20
2022-11-07T10:45:55.736Z,22.30
2022-11-07T10:50:58.204Z,19.80
2022-11-07T10:56:00.622Z,21.30
2022-11-07T11:01:06.228Z,22.80
2022-11-07T11:06:20.833Z,21.70
2022-11-07T11:11:33.860Z,19.10
2022-11-07T11:16:38.654Z,23.50
2022-11-07T11:21:46.043Z,24.90
2022-11-07T11:31:55.104Z,22.70
2022-11-07T11:37:05.889Z,19.10
2022-11-07T11:42:21.291Z,19.90
2022-11-07T11:47:34.202Z,23.80
2022-11-07T11:52:36.733Z,27.60
2022-11-07T11:57:54.463Z,25.60
2022-11-07T12:09:23.374Z,17.50
2022-11-07T12:14:57.423Z,15.10
2022-11-07T12:20:23.085Z,19.50
2022-11-07T12:25:49.512Z,19.10
2022-11-07T12:30:51.309Z,21.40
2022-11-07T12:36:00.457Z,17.80
2022-11-07T12:41:25.273Z,19.00
2022-11-07T12:46:37.952Z,18.80
2022-11-07T12:52:14.188Z,22.50
2022-11-07T12:57:20.650Z,18.30
2022-11-07T13:02:43.806Z,19.80
2022-11-07T13:07:51.440Z,20.00
2022-11-07T13:13:05.213Z,17.10
2022-11-07T13:18:39.052Z,17.90
2022-11-07T13:23:41.744Z,19.30
2022-11-07T13:28:56.213Z,20.30
2022-11-07T13:34:11.427Z,19.90
2022-11-07T13:39:14.855Z,18.40
2022-11-07T13:44:28.467Z,16.20
2022-11-07T13:49:44.620Z,17.40
2022-11-07T13:54:53.973Z,18.30
2022-11-07T14:00:01.187Z,17.90
2022-11-07T14:10:26.739Z,17.80
2022-11-07T14:15:30.642Z,15.40
2022-11-07T14:20:32.529Z,17.00
2022-11-07T14:25:35.711Z,19.70
2022-11-07T14:30:41.469Z,15.60
2022-11-07T14:35:46.775Z,18.60
2022-11-07T14:40:50.764Z,17.60
2022-11-07T14:46:17.625Z,19.30
2022-11-07T14:51:24.854Z,18.10
2022-11-07T14:56:32.953Z,21.80
2022-11-07T15:01:34.868Z,22.30
2022-11-07T15:06:42.931Z,24.20
2022-11-07T15:11:58.585Z,20.40
2022-11-07T15:17:04.260Z,32.10
2022-11-07T15:22:06.206Z,24.80
2022-11-07T15:27:13.810Z,30.10
2022-11-07T15:32:19.059Z,23.90
2022-11-07T15:37:23.313Z,21.40
2022-11-07T15:42:25.176Z,31.50
2022-11-07T15:47:27.155Z,31.70
2022-11-07T15:52:29.040Z,39.70
2022-11-07T15:57:31.611Z,85.70
2022-11-07T16:02:34.632Z,90.40
2022-11-07T16:07:37.081Z,64.90
2022-11-07T16:12:38.819Z,70.80
2022-11-07T16:17:40.875Z,62.20
2022-11-07T16:22:46.939Z,85.90
2022-11-07T16:27:59.212Z,62.40
2022-11-07T16:33:01.050Z,43.10
2022-11-07T16:38:11.518Z,52.00
2022-11-07T16:43:13.405Z,64.70
2022-11-07T16:48:22.720Z,115.40
2022-11-07T16:53:25.864Z,66.90
2022-11-07T16:58:30.161Z,78.20
2022-11-07T17:03:33.102Z,67.90
2022-11-07T17:08:39.385Z,66.40
2022-11-07T17:13:41.563Z,38.60
2022-11-07T17:18:44.268Z,49.70
2022-11-07T17:23:46.141Z,47.20
2022-11-07T17:28:49.115Z,43.80
2022-11-07T17:33:51.245Z,40.40
2022-11-07T17:38:54.307Z,92.30
2022-11-07T17:43:58.017Z,69.80
2022-11-07T17:49:07.068Z,77.30
2022-11-07T17:54:12.356Z,164.20
2022-11-07T17:59:17.303Z,145.70
2022-11-07T18:04:19.180Z,148.90
2022-11-07T18:09:20.986Z,154.40
2022-11-07T18:14:22.837Z,133.60
2022-11-07T18:19:24.643Z,129.10
2022-11-07T18:24:26.621Z,228.50
2022-11-07T18:29:28.456Z,250.70
2022-11-07T18:34:30.340Z,201.70
2022-11-07T18:39:32.864Z,143.50
2022-11-07T18:44:34.660Z,90.10
2022-11-07T18:49:36.686Z,80.40
2022-11-07T18:54:38.572Z,70.20
2022-11-07T18:59:40.449Z,77.80
2022-11-07T19:04:44.098Z,90.20
2022-11-07T19:09:45.942Z,69.70
2022-11-07T19:14:47.820Z,48.20
2022-11-07T19:19:49.695Z,45.20
2022-11-07T19:24:51.579Z,54.20
2022-11-07T19:29:53.490Z,45.70
2022-11-07T19:34:55.742Z,67.40
2022-11-07T19:39:57.612Z,82.70
2022-11-07T19:44:59.706Z,71.70
2022-11-07T19:50:01.559Z,99.60
2022-11-07T19:55:04.582Z,78.90
2022-11-07T20:00:08.376Z,78.40
2022-11-07T20:05:11.790Z,70.40
2022-11-07T20:10:13.692Z,69.90
2022-11-07T20:15:16.206Z,61.80
2022-11-07T20:20:18.062Z,68.80
2022-11-07T20:25:20.250Z,78.00
2022-11-07T20:30:22.016Z,113.80
2022-11-07T20:35:23.897Z,96.70
2022-11-07T20:40:29.184Z,62.40
2022-11-07T20:45:31.376Z,57.00
2022-11-07T20:50:33.237Z,59.30
2022-11-07T20:55:39.872Z,51.60
2022-11-07T21:00:42.788Z,59.80
2022-11-07T21:05:44.699Z,57.50
2022-11-07T21:10:49.124Z,59.90
2022-11-07T21:15:51.398Z,57.10
2022-11-07T21:20:53.698Z,50.40
2022-11-07T21:25:55.878Z,55.00
2022-11-07T21:31:06.040Z,52.10
2022-11-07T21:36:20.000Z,45.40
2022-11-07T21:41:22.097Z,43.70
2022-11-07T21:46:26.639Z,47.50
2022-11-07T21:51:30.666Z,49.60
2022-11-07T21:56:38.892Z,46.70
2022-11-07T22:01:41.613Z,56.20
2022-11-07T22:06:45.718Z,60.00
2022-11-07T22:11:50.048Z,51.10
2022-11-07T22:16:55.097Z,49.30
2022-11-07T22:21:56.892Z,55.50
2022-11-07T22:27:08.780Z,60.30
2022-11-07T22:32:11.893Z,52.40
2022-11-07T22:37:13.721Z,50.00
2022-11-07T22:42:18.508Z,54.80
2022-11-07T22:47:28.997Z,63.90
2022-11-07T22:52:30.872Z,91.60
2022-11-07T22:57:32.752Z,65.30
2022-11-07T23:02:34.775Z,59.50
2022-11-07T23:07:36.910Z,59.50
2022-11-07T23:12:38.649Z,62.90
2022-11-07T23:17:40.968Z,65.10
2022-11-07T23:22:42.721Z,54.80
2022-11-07T23:27:44.526Z,64.90
2022-11-07T23:32:46.406Z,67.40
2022-11-07T23:37:50.032Z,61.00
2022-11-07T23:42:51.904Z,67.80
2022-11-07T23:48:12.524Z,57.70
2022-11-07T23:53:33.134Z,58.90
2022-11-07T23:58:53.618Z,62.40
